Terminal Aerodrome Forecast
Issued by NWS Buffalo, NY

Home | Current Version | Previous Version | Text Only | Print | Product List | Glossary On
Versions: 1 2 3 4 5 6 7 8 9 10 11 12 13 14 15 16 17 18 19 20 21 22 23 24 25 26 27 28 29 30 31
000
FTUS41 KBUF 051700
TAFROC
TAF
KROC 051728Z 0518/0618 31009KT 4SM -SHSN OVC025
      TEMPO 0520/0524 P6SM NSW OVC035
     FM060000 27006KT P6SM VCSH BKN025
     FM060500 26004KT P6SM SCT035
     FM061200 22005KT P6SM FEW250
     FM061700 23009KT P6SM SCT250=

USA.gov is the U.S. government's official web portal to all federal, state and local government web resources and services.